Valborg — OFNR — position and weather

sailwx.info

Track history (hours):
 
Tides and Currents Weather Stations Pressure Air Temp Water Temp Dewpoint Dewpoint Depression Visibility Wind Speed Wind Dir Waves Ship Positions

Valborg

Last reported at 2015-Aug-12 02:26 UTC. Time now 2015-Sep-03 21:26 UTC.
Position N 60°10' E 024°58'.
Warning: this ship's position is 22 days out of date.

Length 30 m; draft 2.4 m.

Type: Sailing vessel. MMSI: 230108270.

Date/timePositionNaut miles runAvg speedWind from/ knotsBaromVisibWave heightAir tempDewpointWater temp
2015-Aug-12 02:26N 60°10' E 024°58'  
2015-Aug-08 16:12N 60°09' E 025°01'  
2015-Aug-03 09:34N 59°55' E 023°46'6 6.0
2015-Aug-03 08:33N 59°56' E 023°34'6 6.4
2015-Aug-03 07:33N 59°55' E 023°21'4 4.1
2015-Aug-03 06:33N 59°59' E 023°26'0 0.0
2015-Aug-03 05:27N 59°59' E 023°26'0 0.0
2015-Aug-03 04:33N 59°59' E 023°26'0 0.0
2015-Aug-02 19:33N 59°59' E 023°26'0 0.0
2015-Aug-02 18:33N 59°59' E 023°26'0 0.0
2015-Aug-02 17:33N 59°59' E 023°26'0 0.0
2015-Aug-02 16:30N 59°59' E 023°26'0 0.0
2015-Aug-02 15:33N 59°59' E 023°26'0 0.0
2015-Aug-02 14:33N 59°59' E 023°26'0 0.0
2015-Aug-02 13:33N 59°59' E 023°26'4 4.3
2015-Aug-02 12:33N 59°55' E 023°21'5 4.6
2015-Aug-02 11:33N 59°51' E 023°16'2 2.2
2015-Aug-02 10:32N 59°52' E 023°21'5 5.3
2015-Aug-02 09:33N 59°50' E 023°30'2 0.4
2015-Aug-02 04:30N 59°50' E 023°34'  
Track history (hours):
 
Tides and Currents Weather Stations Pressure Air Temp Water Temp Dewpoint Dewpoint Depression Visibility Wind Speed Wind Dir Waves Ship Positions

Valborg

Last reported at 2015-Aug-12 02:26 UTC. Time now 2015-Sep-03 21:26 UTC.
Position N 60°10' E 024°58'.
Warning: this ship's position is 22 days out of date.

Length 30 m; draft 2.4 m.

Type: Sailing vessel. MMSI: 230108270.

Date/timePositionNaut miles runAvg speedWind from/ knotsBaromVisibWave heightAir tempDewpointWater temp
2015-Aug-12 02:26N 60°10' E 024°58'  
2015-Aug-08 16:12N 60°09' E 025°01'  
2015-Aug-03 09:34N 59°55' E 023°46'6 6.0
2015-Aug-03 08:33N 59°56' E 023°34'6 6.4
2015-Aug-03 07:33N 59°55' E 023°21'4 4.1
2015-Aug-03 06:33N 59°59' E 023°26'0 0.0
2015-Aug-03 05:27N 59°59' E 023°26'0 0.0
2015-Aug-03 04:33N 59°59' E 023°26'0 0.0
2015-Aug-02 19:33N 59°59' E 023°26'0 0.0
2015-Aug-02 18:33N 59°59' E 023°26'0 0.0
2015-Aug-02 17:33N 59°59' E 023°26'0 0.0
2015-Aug-02 16:30N 59°59' E 023°26'0 0.0
2015-Aug-02 15:33N 59°59' E 023°26'0 0.0
2015-Aug-02 14:33N 59°59' E 023°26'0 0.0
2015-Aug-02 13:33N 59°59' E 023°26'4 4.3
2015-Aug-02 12:33N 59°55' E 023°21'5 4.6
2015-Aug-02 11:33N 59°51' E 023°16'2 2.2
2015-Aug-02 10:32N 59°52' E 023°21'5 5.3
2015-Aug-02 09:33N 59°50' E 023°30'2 0.4
2015-Aug-02 04:30N 59°50' E 023°34'  

Dump ship's entire track history